Time;durP1;ratioP1;P1;durP2;ratioP2;P2;SDS_P1;SDS_P2;PMS_P1;PMS_P2;Temp;Humidity;BMP_temperature;BMP_pressure;BME280_temperature;BME280_humidity;BME280_pressure;Samples;Min_cycle;Max_cycle;Signal;HPM_P1;HPM_P2
2023/07/06 00:00:41;;;;;;;4.10;2.50;;;;;;;17.20;62.15;155780.28;4986445;28;20453;-78
2023/07/06 00:03:09;;;;;;;2.70;2.13;;;;;;;17.22;62.12;155786.78;5002438;28;20460;-77
2023/07/06 00:05:35;;;;;;;3.00;2.33;;;;;;;17.19;62.52;155777.66;4994530;28;20551;-77
2023/07/06 00:08:02;;;;;;;2.40;2.10;;;;;;;17.20;62.03;155780.28;4996612;28;20476;-78
2023/07/06 00:10:33;;;;;;;3.00;2.30;;;;;;;17.21;61.73;155782.91;4994447;28;20851;-77
2023/07/06 00:13:01;;;;;;;3.03;2.50;;;;;;;17.21;61.86;155782.91;4989732;28;20457;-77
2023/07/06 00:15:27;;;;;;;4.23;2.77;;;;;;;17.18;61.79;155776.41;4989225;28;20900;-77
2023/07/06 00:17:55;;;;;;;2.63;2.43;;;;;;;17.16;61.71;155769.84;4987473;28;20826;-78
2023/07/06 00:20:23;;;;;;;3.20;2.17;;;;;;;17.14;61.78;155764.66;4994353;28;20462;-78
2023/07/06 00:22:49;;;;;;;3.20;2.60;;;;;;;17.08;61.87;155749.06;4986725;28;20469;-77
2023/07/06 00:25:16;;;;;;;5.10;2.17;;;;;;;17.04;61.93;155739.94;4987290;28;20445;-77
2023/07/06 00:27:43;;;;;;;2.57;2.30;;;;;;;16.98;62.00;155725.63;4985054;28;20850;-77
2023/07/06 00:30:18;;;;;;;5.10;2.50;;;;;;;16.94;62.62;155715.19;4992403;28;20505;-77
2023/07/06 00:32:47;;;;;;;3.50;2.20;;;;;;;16.90;62.61;155703.50;4993665;28;20994;-77
2023/07/06 00:35:15;;;;;;;4.23;2.30;;;;;;;16.84;62.47;155689.19;4990178;28;20452;-77
2023/07/06 00:37:43;;;;;;;2.97;2.20;;;;;;;16.79;62.93;155676.19;4998409;28;20470;-78
2023/07/06 00:40:13;;;;;;;3.77;2.30;;;;;;;16.77;63.02;155670.97;5000020;28;20457;-77
2023/07/06 00:42:41;;;;;;;3.83;3.07;;;;;;;16.74;62.98;155663.16;4990305;28;20481;-77
2023/07/06 00:45:10;;;;;;;3.33;2.33;;;;;;;16.70;63.18;155652.78;4980935;28;20947;-77
2023/07/06 00:47:41;;;;;;;2.87;2.40;;;;;;;16.67;63.10;155644.97;4996317;28;20959;-77
2023/07/06 00:50:17;;;;;;;2.70;2.40;;;;;;;16.66;63.72;155642.34;4993650;28;20948;-77
2023/07/06 00:52:49;;;;;;;2.40;2.10;;;;;;;16.63;63.65;155634.53;5001315;28;20822;-77
2023/07/06 00:55:16;;;;;;;2.40;2.00;;;;;;;16.64;63.34;155637.16;4980245;28;20520;-78
2023/07/06 00:57:44;;;;;;;4.80;2.60;;;;;;;16.63;63.06;155634.53;4985356;28;20445;-77
2023/07/06 01:00:20;;;;;;;3.20;2.30;;;;;;;16.60;63.09;155626.72;4980905;28;20515;-77
2023/07/06 01:02:48;;;;;;;2.73;2.23;;;;;;;16.68;63.56;155646.28;4973077;28;20791;-77
2023/07/06 01:05:15;;;;;;;3.47;2.80;;;;;;;16.70;64.07;155652.78;4990788;28;20530;-77
2023/07/06 01:07:44;;;;;;;3.50;2.73;;;;;;;16.71;64.36;155654.03;4989524;28;20443;-77
2023/07/06 01:10:13;;;;;;;5.13;2.37;;;;;;;16.68;64.23;155646.28;4983343;28;20516;-77
2023/07/06 01:12:39;;;;;;;4.67;2.50;;;;;;;16.65;64.27;155638.47;4985887;28;20500;-77
2023/07/06 01:15:07;;;;;;;3.97;2.43;;;;;;;16.63;64.30;155634.53;4982785;28;20446;-77
2023/07/06 01:17:41;;;;;;;2.50;2.30;;;;;;;16.60;64.38;155626.72;4993180;28;20969;-77
2023/07/06 01:20:15;;;;;;;2.77;2.50;;;;;;;16.58;64.30;155620.22;5001866;28;20491;-77
2023/07/06 01:23:05;;;;;;;2.60;2.30;;;;;;;16.52;64.95;155605.88;4989035;28;20480;-77
2023/07/06 01:25:47;;;;;;;3.13;2.83;;;;;;;16.45;65.39;155587.66;4981431;28;20468;-77
2023/07/06 01:28:31;;;;;;;2.33;2.07;;;;;;;16.38;65.72;155569.47;4989499;28;20458;-77
2023/07/06 01:31:20;;;;;;;2.83;2.40;;;;;;;16.35;65.84;155562.97;4993733;28;20475;-77
2023/07/06 01:33:52;;;;;;;3.57;2.63;;;;;;;16.35;65.74;155561.66;4968986;28;20523;-77
2023/07/06 01:36:24;;;;;;;3.50;2.47;;;;;;;16.31;65.99;155551.25;4975821;28;20458;-77
2023/07/06 01:39:11;;;;;;;2.63;2.27;;;;;;;16.25;66.38;155535.66;4983883;28;20790;-77
2023/07/06 01:41:37;;;;;;;2.50;2.23;;;;;;;16.20;66.67;155522.66;5005048;28;20481;-77
2023/07/06 01:44:05;;;;;;;3.07;2.73;;;;;;;16.17;66.77;155514.88;4988728;28;20450;-77
2023/07/06 01:46:33;;;;;;;2.87;2.33;;;;;;;16.13;66.61;155504.44;4993285;28;20453;-77
2023/07/06 01:48:59;;;;;;;2.70;2.43;;;;;;;16.10;66.97;155496.63;4991345;28;20512;-78
2023/07/06 01:51:32;;;;;;;3.50;2.30;;;;;;;16.04;66.88;155481.06;4988502;28;20548;-77
2023/07/06 01:54:02;;;;;;;4.80;2.70;;;;;;;15.99;66.90;155469.31;5001003;28;20478;-77
2023/07/06 01:56:31;;;;;;;2.60;2.40;;;;;;;15.97;67.15;155462.81;4990794;28;21038;-77
2023/07/06 01:59:01;;;;;;;3.00;2.67;;;;;;;15.91;67.21;155447.25;4996317;28;20481;-77
2023/07/06 02:01:29;;;;;;;6.17;2.47;;;;;;;15.86;67.54;155434.25;4990410;28;20496;-77
2023/07/06 02:03:58;;;;;;;2.47;2.20;;;;;;;15.78;67.59;155416.03;4985696;28;20454;-77
2023/07/06 02:06:25;;;;;;;4.33;2.70;;;;;;;15.78;67.78;155414.72;4980352;28;20468;-77
2023/07/06 02:08:51;;;;;;;2.90;2.60;;;;;;;15.78;67.16;155414.72;4972298;28;20460;-77
2023/07/06 02:11:20;;;;;;;3.47;2.30;;;;;;;15.74;67.00;155405.66;4988113;28;20466;-77
2023/07/06 02:13:47;;;;;;;3.53;2.30;;;;;;;15.72;66.84;155399.16;4997698;28;20450;-77
2023/07/06 02:16:15;;;;;;;3.13;2.70;;;;;;;15.68;67.10;155390.03;4994707;28;20827;-77
2023/07/06 02:18:42;;;;;;;4.00;2.60;;;;;;;15.68;66.70;155390.03;4979629;28;20453;-77
2023/07/06 02:21:10;;;;;;;3.90;2.30;;;;;;;15.67;66.88;155387.41;4969259;28;21036;-77
2023/07/06 02:23:37;;;;;;;3.20;2.13;;;;;;;15.65;67.02;155382.22;4988063;28;20597;-77
2023/07/06 02:26:04;;;;;;;3.73;2.67;;;;;;;15.66;66.84;155384.84;4988728;28;20966;-77
2023/07/06 02:28:31;;;;;;;3.40;2.20;;;;;;;15.64;66.71;155379.66;4988231;28;21002;-77
2023/07/06 02:30:59;;;;;;;3.93;2.33;;;;;;;15.62;66.36;155374.41;4992494;28;20457;-77
2023/07/06 02:33:27;;;;;;;3.10;2.27;;;;;;;15.60;66.90;155367.91;4993532;28;20487;-77
2023/07/06 02:35:53;;;;;;;3.17;2.30;;;;;;;15.55;66.79;155356.25;4988248;28;20618;-77
2023/07/06 02:38:22;;;;;;;3.03;2.73;;;;;;;15.53;67.09;155349.75;4977768;28;20553;-77
2023/07/06 02:40:49;;;;;;;3.10;2.37;;;;;;;15.48;67.03;155338.06;4992917;28;20495;-77
2023/07/06 02:43:16;;;;;;;2.70;2.20;;;;;;;15.39;67.29;155314.59;4970612;28;20478;-77
2023/07/06 02:45:45;;;;;;;2.87;2.40;;;;;;;15.34;67.72;155301.59;4985380;28;20469;-77
2023/07/06 02:48:12;;;;;;;3.23;2.60;;;;;;;15.33;67.79;155298.97;5001619;28;20449;-77
2023/07/06 02:50:39;;;;;;;3.30;2.57;;;;;;;15.30;67.79;155291.22;4990961;28;20552;-77
2023/07/06 02:53:05;;;;;;;2.77;2.03;;;;;;;15.29;67.80;155288.63;4986861;28;20458;-77
2023/07/06 02:55:33;;;;;;;2.63;2.20;;;;;;;15.25;67.76;155279.50;4988083;28;23707;-77
2023/07/06 02:58:00;;;;;;;3.50;2.50;;;;;;;15.27;67.80;155283.44;5018699;28;20523;-77
2023/07/06 03:00:26;;;;;;;2.77;2.20;;;;;;;15.26;67.84;155280.81;4986913;28;20471;-77
2023/07/06 03:02:53;;;;;;;7.73;2.47;;;;;;;15.29;67.88;155287.31;4986297;28;20647;-77
2023/07/06 03:05:22;;;;;;;5.97;2.47;;;;;;;15.26;67.48;155280.81;5007640;28;20471;-77
2023/07/06 03:07:49;;;;;;;3.27;2.47;;;;;;;15.28;67.75;155286.00;4994795;28;20454;-77
2023/07/06 03:10:17;;;;;;;2.70;1.90;;;;;;;15.30;67.67;155289.91;4987313;28;20462;-77
2023/07/06 03:12:45;;;;;;;3.00;2.70;;;;;;;15.31;67.93;155293.78;4995434;28;20450;-77
2023/07/06 03:15:12;;;;;;;3.73;2.30;;;;;;;15.31;67.69;155293.78;4982369;28;20454;-77
2023/07/06 03:17:40;;;;;;;3.10;2.37;;;;;;;15.33;68.27;155298.97;4999150;28;20447;-77
2023/07/06 03:20:14;;;;;;;3.60;2.13;;;;;;;15.30;67.89;155291.22;4972720;28;20460;-77
2023/07/06 03:22:40;;;;;;;3.90;2.00;;;;;;;15.27;68.04;155284.69;4990787;28;20473;-77
2023/07/06 03:25:09;;;;;;;2.47;2.23;;;;;;;15.27;68.34;155282.13;4987372;28;20485;-77
2023/07/06 03:27:37;;;;;;;3.10;2.30;;;;;;;15.21;68.54;155269.13;4984409;28;20470;-77
2023/07/06 03:30:07;;;;;;;2.80;2.53;;;;;;;15.21;68.14;155267.81;4984524;28;21020;-77
2023/07/06 03:32:37;;;;;;;5.43;2.93;;;;;;;15.24;68.64;155275.63;4988080;28;20470;-77
2023/07/06 03:35:04;;;;;;;3.40;2.07;;;;;;;15.22;69.03;155270.44;4961614;28;20540;-77
2023/07/06 03:37:30;;;;;;;3.13;2.60;;;;;;;15.18;69.19;155260.00;4984214;28;20942;-77
2023/07/06 03:39:57;;;;;;;2.90;2.40;;;;;;;15.14;69.73;155249.66;4998510;28;20510;-77
2023/07/06 03:42:24;;;;;;;9.53;2.50;;;;;;;15.12;70.13;155244.41;5002444;28;20480;-77
2023/07/06 03:44:53;;;;;;;4.23;2.13;;;;;;;15.07;70.44;155232.72;4985334;28;20446;-77
2023/07/06 03:47:21;;;;;;;4.00;2.53;;;;;;;15.06;71.14;155228.84;4987356;28;20474;-77
2023/07/06 03:49:48;;;;;;;3.17;2.30;;;;;;;15.01;71.41;155215.88;4999419;28;20528;-77
2023/07/06 03:52:17;;;;;;;3.40;2.77;;;;;;;14.99;71.67;155211.94;4989788;28;20450;-77
2023/07/06 03:54:44;;;;;;;2.90;2.60;;;;;;;14.94;71.79;155197.66;4986068;28;20448;-77
2023/07/06 03:57:11;;;;;;;3.27;2.73;;;;;;;14.91;72.54;155191.16;4983169;28;21015;-77
2023/07/06 03:59:38;;;;;;;3.83;2.57;;;;;;;14.89;72.91;155185.97;4988122;28;20445;-77
2023/07/06 04:02:05;;;;;;;3.30;2.70;;;;;;;14.90;72.88;155187.28;4999189;28;20499;-77
2023/07/06 04:04:33;;;;;;;4.17;3.13;;;;;;;14.93;73.00;155195.06;4987863;28;20517;-77
2023/07/06 04:07:00;;;;;;;4.13;3.20;;;;;;;14.95;73.37;155201.56;4995127;28;20454;-77
2023/07/06 04:09:28;;;;;;;3.00;2.57;;;;;;;14.99;73.36;155211.94;4968911;28;20910;-77
2023/07/06 04:11:55;;;;;;;4.03;2.57;;;;;;;15.02;73.58;155218.44;4983190;28;20573;-77
2023/07/06 04:14:25;;;;;;;3.50;2.93;;;;;;;15.01;73.84;155217.13;4978105;28;20450;-77
2023/07/06 04:16:52;;;;;;;3.57;2.90;;;;;;;15.04;74.06;155224.94;5005667;28;20559;-77
2023/07/06 04:19:18;;;;;;;3.60;3.10;;;;;;;15.14;74.08;155249.66;4983829;28;21243;-78
2023/07/06 04:21:47;;;;;;;7.47;2.90;;;;;;;15.28;73.84;155286.00;4984809;28;20516;-77
2023/07/06 04:24:13;;;;;;;3.70;2.87;;;;;;;15.42;73.54;155322.41;4999605;28;20464;-78
2023/07/06 04:26:41;;;;;;;3.13;2.83;;;;;;;15.56;73.11;155357.56;4985584;28;20468;-84
2023/07/06 04:29:09;;;;;;;3.50;3.17;;;;;;;15.72;72.62;155400.47;4977739;28;20449;-83
2023/07/06 04:31:36;;;;;;;3.97;2.70;;;;;;;15.87;71.94;155436.81;5002214;28;20819;-84
2023/07/06 04:34:04;;;;;;;4.37;2.60;;;;;;;16.02;71.25;155477.13;4982599;28;20485;-84
2023/07/06 04:36:31;;;;;;;3.07;2.80;;;;;;;16.22;70.55;155527.84;4987378;28;20757;-84
2023/07/06 04:39:00;;;;;;;6.17;3.17;;;;;;;16.41;69.86;155577.28;4967110;28;21028;-84
2023/07/06 04:41:26;;;;;;;4.90;2.40;;;;;;;16.57;69.29;155617.66;4982640;28;20562;-84
2023/07/06 04:43:53;;;;;;;3.43;2.80;;;;;;;16.74;68.55;155663.16;4979601;28;20881;-84
2023/07/06 04:46:20;;;;;;;5.80;3.10;;;;;;;16.94;67.79;155715.19;4981235;28;21224;-84
2023/07/06 04:48:47;;;;;;;4.30;3.10;;;;;;;17.13;67.56;155762.06;4983764;28;20462;-84
2023/07/06 04:51:14;;;;;;;4.77;3.40;;;;;;;17.32;67.75;155811.50;4985092;28;20553;-84
2023/07/06 04:53:42;;;;;;;3.80;3.30;;;;;;;17.45;67.77;155846.63;4989872;28;20458;-84
2023/07/06 04:56:11;;;;;;;5.00;2.50;;;;;;;17.55;67.21;155871.47;4977319;28;20532;-84
2023/07/06 04:58:38;;;;;;;3.63;2.90;;;;;;;17.63;66.63;155893.53;4990475;28;20465;-84
2023/07/06 05:01:06;;;;;;;4.43;3.00;;;;;;;17.75;66.48;155922.19;4985283;28;20462;-84
2023/07/06 05:03:33;;;;;;;3.47;2.80;;;;;;;17.96;64.72;155978.19;4982469;28;20807;-83
2023/07/06 05:06:02;;;;;;;4.17;3.07;;;;;;;18.11;62.51;156017.25;4992239;28;20907;-83
2023/07/06 05:08:28;;;;;;;2.80;2.40;;;;;;;18.20;62.52;156040.69;4980775;28;20556;-83
2023/07/06 05:10:55;;;;;;;5.83;3.50;;;;;;;18.32;61.99;156069.38;4978709;28;20469;-83
2023/07/06 05:13:23;;;;;;;4.17;3.03;;;;;;;18.53;61.96;156125.38;4974902;28;20457;-83
2023/07/06 05:15:50;;;;;;;6.10;3.27;;;;;;;18.64;62.21;156154.06;4969698;28;20949;-83
2023/07/06 05:18:19;;;;;;;3.50;3.20;;;;;;;18.79;61.37;156191.84;4983569;28;20735;-83
2023/07/06 05:20:46;;;;;;;4.10;3.23;;;;;;;18.95;61.96;156232.25;4976120;28;20457;-83
2023/07/06 05:23:12;;;;;;;4.77;4.03;;;;;;;19.08;60.54;156266.13;4974143;28;20560;-83
2023/07/06 05:25:39;;;;;;;4.00;3.37;;;;;;;19.25;60.46;156310.41;4990088;28;20557;-83
2023/07/06 05:28:10;;;;;;;4.40;3.23;;;;;;;19.38;59.94;156345.66;4975869;28;20466;-83
2023/07/06 05:30:38;;;;;;;4.10;3.53;;;;;;;19.52;59.88;156380.84;4979550;28;20784;-83
2023/07/06 05:33:06;;;;;;;3.53;3.23;;;;;;;19.59;60.55;156399.09;4976249;28;20505;-83
2023/07/06 05:35:32;;;;;;;4.40;4.00;;;;;;;19.69;58.91;156425.19;4971730;28;20474;-83
2023/07/06 05:37:59;;;;;;;4.20;3.70;;;;;;;19.88;58.67;156474.69;4973348;28;20465;-83
2023/07/06 05:40:26;;;;;;;4.20;3.80;;;;;;;20.11;57.73;156533.41;4973826;28;20828;-83
2023/07/06 05:42:54;;;;;;;5.20;4.03;;;;;;;20.30;57.68;156581.72;4969455;28;20479;-83
2023/07/06 05:45:20;;;;;;;4.73;3.70;;;;;;;20.41;57.93;156611.69;4972016;28;20480;-83
2023/07/06 05:47:48;;;;;;;4.57;3.13;;;;;;;20.45;57.94;156620.84;4973333;28;20547;-83
2023/07/06 05:50:15;;;;;;;3.93;3.23;;;;;;;20.51;57.67;156636.50;4988853;28;20992;-83
2023/07/06 05:52:42;;;;;;;4.10;3.57;;;;;;;20.67;57.58;156678.25;4977350;28;20672;-83
2023/07/06 05:55:09;;;;;;;6.83;4.03;;;;;;;20.85;56.76;156723.91;4976808;28;20513;-84
2023/07/06 05:57:36;;;;;;;4.13;3.50;;;;;;;21.03;55.20;156772.19;4978066;28;20461;-83
2023/07/06 06:00:09;;;;;;;3.83;3.47;;;;;;;21.15;56.33;156802.25;4979661;28;20538;-83
2023/07/06 06:02:36;;;;;;;3.50;2.80;;;;;;;21.06;56.15;156778.69;4975556;28;20441;-83
2023/07/06 06:05:07;;;;;;;5.50;3.80;;;;;;;20.98;55.84;156757.81;4964321;28;20505;-83
2023/07/06 06:07:34;;;;;;;3.33;3.00;;;;;;;21.07;56.44;156781.38;4975148;28;20501;-83
2023/07/06 06:10:03;;;;;;;3.77;3.40;;;;;;;21.20;55.10;156815.31;4995638;28;20524;-83
2023/07/06 06:12:31;;;;;;;7.10;3.40;;;;;;;21.14;55.34;156800.94;4973745;28;20532;-83
2023/07/06 06:14:58;;;;;;;5.30;3.53;;;;;;;21.26;55.11;156830.94;4981028;28;20454;-84
2023/07/06 06:17:27;;;;;;;3.57;3.07;;;;;;;21.57;54.33;156911.91;4980305;28;20450;-84
2023/07/06 06:19:55;;;;;;;5.00;4.60;;;;;;;21.87;53.58;156987.69;4978917;28;20577;-84
2023/07/06 06:22:23;;;;;;;3.70;3.40;;;;;;;21.91;53.49;156999.41;4977094;28;20938;-84
2023/07/06 06:24:50;;;;;;;6.40;3.40;;;;;;;21.72;54.18;156949.75;4979693;28;20485;-84
2023/07/06 06:27:17;;;;;;;5.07;3.70;;;;;;;21.68;54.72;156939.31;4968407;28;21019;-84
2023/07/06 06:29:45;;;;;;;4.40;3.37;;;;;;;21.81;54.37;156974.56;4978844;28;20450;-84
2023/07/06 06:32:12;;;;;;;5.10;3.17;;;;;;;21.63;54.54;156927.53;4984155;28;20481;-84
2023/07/06 06:34:46;;;;;;;3.67;3.37;;;;;;;21.81;53.86;156974.56;4977113;28;20460;-84
2023/07/06 06:37:12;;;;;;;4.03;3.20;;;;;;;21.93;53.66;157003.31;4978120;28;20544;-84
2023/07/06 06:39:43;;;;;;;5.63;3.40;;;;;;;21.89;54.00;156994.19;4981451;28;20449;-84
2023/07/06 06:42:13;;;;;;;5.20;2.63;;;;;;;21.96;53.67;157011.16;4978082;28;20573;-84
2023/07/06 06:44:42;;;;;;;9.80;3.30;;;;;;;22.18;53.11;157069.94;4983323;28;20473;-85
2023/07/06 06:47:09;;;;;;;4.30;3.33;;;;;;;22.41;51.57;157128.69;4995611;28;20474;-85
2023/07/06 06:49:36;;;;;;;4.03;2.97;;;;;;;22.58;50.77;157171.81;4978696;28;20454;-84
2023/07/06 06:52:03;;;;;;;4.43;3.20;;;;;;;22.40;49.88;157127.38;4978451;28;20512;-84
2023/07/06 06:54:30;;;;;;;12.93;3.00;;;;;;;22.48;50.40;157145.69;4986168;28;20450;-84
2023/07/06 06:57:01;;;;;;;6.67;3.20;;;;;;;22.66;49.84;157194.09;4984755;28;20469;-84
2023/07/06 06:59:28;;;;;;;4.90;2.60;;;;;;;23.00;48.92;157281.63;4968698;28;20794;-84
2023/07/06 07:02:00;;;;;;;3.73;2.83;;;;;;;23.24;48.61;157343.03;4981184;28;20457;-84
2023/07/06 07:04:26;;;;;;;3.23;2.47;;;;;;;23.39;46.80;157382.28;4997827;28;20561;-84
2023/07/06 07:06:53;;;;;;;3.23;2.47;;;;;;;23.29;46.39;157357.41;4977094;28;21240;-85
2023/07/06 07:09:20;;;;;;;5.33;3.03;;;;;;;23.19;46.79;157329.97;4981341;28;20485;-84
2023/07/06 07:11:47;;;;;;;3.87;3.07;;;;;;;23.23;46.91;157341.72;4977817;28;20461;-85
2023/07/06 07:14:15;;;;;;;2.83;2.43;;;;;;;23.23;46.17;157341.72;4978647;28;20453;-84
2023/07/06 07:16:42;;;;;;;5.83;3.07;;;;;;;23.33;46.33;157367.84;4977799;28;20860;-84
2023/07/06 07:19:08;;;;;;;3.93;2.77;;;;;;;23.37;46.10;157377.06;4979836;28;20801;-84
2023/07/06 07:21:37;;;;;;;4.53;3.20;;;;;;;23.37;46.86;157378.38;4995628;28;20461;-85
2023/07/06 07:24:13;;;;;;;5.10;3.30;;;;;;;23.33;45.85;157366.53;4976704;28;20474;-85
2023/07/06 07:26:39;;;;;;;4.60;2.63;;;;;;;23.24;45.49;157344.34;4973394;28;20476;-84
2023/07/06 07:29:06;;;;;;;4.53;2.53;;;;;;;23.26;45.45;157348.25;4978605;28;20548;-84
2023/07/06 07:31:34;;;;;;;4.63;2.70;;;;;;;23.60;45.03;157438.50;4977124;28;20453;-84
2023/07/06 07:34:03;;;;;;;2.53;2.33;;;;;;;23.92;43.63;157519.53;4980013;28;20488;-84
2023/07/06 07:36:30;;;;;;;6.90;2.40;;;;;;;23.82;43.29;157493.41;4993034;28;20458;-84
2023/07/06 07:38:57;;;;;;;4.60;2.70;;;;;;;23.79;43.79;157486.88;4975064;28;20547;-85
2023/07/06 07:41:26;;;;;;;5.10;3.00;;;;;;;24.01;45.28;157544.34;4977022;28;20494;-84
2023/07/06 07:43:53;;;;;;;3.10;2.80;;;;;;;24.30;44.87;157617.66;4979539;28;20532;-85
2023/07/06 07:46:22;;;;;;;3.00;2.70;;;;;;;24.48;44.52;157666.06;4978073;28;20519;-85
2023/07/06 07:48:50;;;;;;;3.50;2.57;;;;;;;24.72;41.92;157727.53;4994399;28;20658;-85
2023/07/06 07:51:19;;;;;;;3.93;3.00;;;;;;;24.59;41.51;157693.53;4977699;28;20488;-85
2023/07/06 07:53:46;;;;;;;3.80;2.40;;;;;;;24.50;42.66;157669.97;4976924;28;20446;-84
2023/07/06 07:56:15;;;;;;;2.97;2.33;;;;;;;24.51;42.12;157672.59;4979278;28;20557;-85
2023/07/06 07:58:48;;;;;;;7.17;2.80;;;;;;;24.60;42.83;157696.13;4978537;28;20833;-85
2023/07/06 08:01:16;;;;;;;3.60;2.80;;;;;;;24.85;41.65;157761.59;4977346;28;20492;-84
2023/07/06 08:03:43;;;;;;;2.77;2.20;;;;;;;24.94;41.05;157785.13;4967260;28;20560;-85
2023/07/06 08:06:16;;;;;;;3.67;2.17;;;;;;;24.79;40.74;157745.88;4971812;28;20467;-85
2023/07/06 08:08:43;;;;;;;3.03;2.37;;;;;;;24.41;41.51;157646.47;4980392;28;20442;-81
2023/07/06 08:11:12;;;;;;;3.10;2.70;;;;;;;24.22;41.58;157599.31;4975481;28;20504;-81
2023/07/06 08:13:39;;;;;;;3.10;2.50;;;;;;;24.53;41.85;157677.81;4978579;28;20454;-81
2023/07/06 08:16:06;;;;;;;3.10;2.50;;;;;;;24.69;41.18;157721.00;4980115;28;20453;-81
2023/07/06 08:18:33;;;;;;;2.70;2.17;;;;;;;25.15;40.03;157838.81;4977816;28;20980;-81
2023/07/06 08:21:01;;;;;;;2.63;2.30;;;;;;;25.02;39.27;157804.78;4978716;28;20532;-81
2023/07/06 08:23:29;;;;;;;2.77;2.47;;;;;;;24.52;40.39;157675.19;4978761;28;20584;-81
2023/07/06 08:25:57;;;;;;;3.50;3.00;;;;;;;24.59;40.63;157693.53;4976815;28;20552;-81
2023/07/06 08:28:28;;;;;;;2.77;2.33;;;;;;;24.92;41.44;157779.91;4975024;28;20497;-82
2023/07/06 08:30:55;;;;;;;2.67;2.40;;;;;;;25.31;42.94;157880.69;4977549;28;20533;-81
2023/07/06 08:33:22;;;;;;;2.97;2.40;;;;;;;25.61;41.63;157959.25;4964349;28;20485;-81
2023/07/06 08:35:50;;;;;;;2.47;2.27;;;;;;;25.84;41.04;158018.19;4982410;28;20451;-81
2023/07/06 08:38:17;;;;;;;2.80;2.60;;;;;;;26.00;38.81;158060.03;4994256;28;21047;-82
2023/07/06 08:40:48;;;;;;;5.20;3.37;;;;;;;25.97;37.80;158053.47;4978358;28;21165;-82
2023/07/06 08:43:19;;;;;;;4.40;2.57;;;;;;;25.96;38.52;158049.59;4980458;28;20437;-81
2023/07/06 08:45:49;;;;;;;2.40;2.20;;;;;;;26.13;37.61;158092.84;4977761;28;20461;-82
2023/07/06 08:48:19;;;;;;;3.87;2.80;;;;;;;26.25;37.68;158124.25;4974908;28;20493;-81
2023/07/06 08:50:51;;;;;;;3.17;2.50;;;;;;;26.45;37.61;158177.94;4980444;28;20502;-81
2023/07/06 08:53:20;;;;;;;3.43;2.50;;;;;;;26.16;39.10;158101.97;4979445;28;20449;-81
2023/07/06 08:55:49;;;;;;;2.50;2.30;;;;;;;26.11;37.21;158088.84;4981193;28;20451;-81
2023/07/06 08:58:21;;;;;;;2.97;2.60;;;;;;;25.92;37.30;158039.13;4979715;28;20524;-82
2023/07/06 09:00:48;;;;;;;3.17;2.47;;;;;;;25.26;38.29;157867.56;4983139;28;20536;-82
2023/07/06 09:03:14;;;;;;;4.53;2.60;;;;;;;25.20;39.54;157851.91;4978220;28;20469;-81
2023/07/06 09:05:46;;;;;;;5.60;2.53;;;;;;;25.30;38.81;157878.06;4979572;28;20595;-82
2023/07/06 09:08:15;;;;;;;2.97;2.43;;;;;;;25.55;38.56;157942.25;4975802;28;20441;-81
2023/07/06 09:10:42;;;;;;;3.20;2.67;;;;;;;25.33;39.07;157887.22;4975942;28;20458;-81
2023/07/06 09:13:15;;;;;;;3.27;2.90;;;;;;;25.32;38.32;157883.28;4978484;28;20460;-81
2023/07/06 09:15:44;;;;;;;2.77;2.40;;;;;;;25.50;40.22;157929.13;4977409;28;21139;-81
2023/07/06 09:18:14;;;;;;;3.43;2.50;;;;;;;25.63;39.84;157964.47;4979236;28;20462;-82
2023/07/06 09:20:44;;;;;;;4.60;2.90;;;;;;;25.66;38.60;157971.00;4978350;28;20457;-81
2023/07/06 09:23:14;;;;;;;3.13;2.70;;;;;;;25.53;37.43;157936.97;4974520;28;20449;-81
2023/07/06 09:25:43;;;;;;;3.67;2.50;;;;;;;25.24;39.29;157863.66;4975528;28;20481;-81
2023/07/06 09:28:16;;;;;;;3.93;2.70;;;;;;;25.12;37.89;157830.97;4964080;28;20922;-81
2023/07/06 09:30:44;;;;;;;3.03;2.63;;;;;;;25.07;37.65;157819.16;4981305;28;20623;-81
2023/07/06 09:33:18;;;;;;;3.67;3.10;;;;;;;24.59;38.17;157693.53;4982241;28;20492;-82
2023/07/06 09:35:44;;;;;;;3.37;2.90;;;;;;;24.38;39.02;157638.59;4981113;28;20481;-81
2023/07/06 09:38:13;;;;;;;4.07;2.90;;;;;;;24.40;38.80;157643.81;4987322;28;20449;-81
2023/07/06 09:40:40;;;;;;;3.30;3.00;;;;;;;24.58;39.11;157690.91;4980596;28;20465;-81
2023/07/06 09:43:18;;;;;;;3.63;2.70;;;;;;;24.81;38.87;157752.44;4981991;28;20819;-82
2023/07/06 09:45:45;;;;;;;3.07;2.60;;;;;;;25.02;38.16;157804.78;4980911;28;20474;-81
2023/07/06 09:48:26;;;;;;;3.17;2.70;;;;;;;25.50;37.67;157929.13;4994805;28;20525;-81
2023/07/06 09:50:55;;;;;;;3.40;2.63;;;;;;;25.79;36.62;158005.03;4980254;28;20552;-81
2023/07/06 09:53:26;;;;;;;3.27;2.97;;;;;;;25.92;37.67;158039.13;4981516;28;20448;-82
2023/07/06 09:55:54;;;;;;;3.37;2.50;;;;;;;26.19;37.34;158108.53;4981460;28;20461;-82
2023/07/06 09:58:25;;;;;;;3.93;2.90;;;;;;;26.35;37.36;158151.75;4982724;28;20449;-82
2023/07/06 10:00:57;;;;;;;3.73;3.00;;;;;;;26.23;35.66;158120.34;4981734;28;20971;-82
2023/07/06 10:03:35;;;;;;;3.97;2.93;;;;;;;25.86;36.03;158024.72;4981455;28;20450;-82
2023/07/06 10:06:08;;;;;;;2.30;2.10;;;;;;;25.92;38.64;158039.13;4979727;28;20485;-82
2023/07/06 10:08:38;;;;;;;4.60;2.50;;;;;;;26.02;37.08;158066.63;4980938;28;20813;-82
2023/07/06 10:11:12;;;;;;;4.53;2.77;;;;;;;25.99;36.18;158058.75;4976033;28;20453;-82
2023/07/06 10:13:44;;;;;;;3.93;2.77;;;;;;;25.95;36.50;158046.94;4981846;28;20458;-82
2023/07/06 10:16:25;;;;;;;4.73;3.07;;;;;;;25.19;36.65;157850.59;4979571;28;20461;-82
2023/07/06 10:18:53;;;;;;;3.07;2.77;;;;;;;24.45;37.78;157656.91;4976674;28;20449;-82
2023/07/06 10:21:23;;;;;;;3.10;2.80;;;;;;;24.38;37.83;157639.91;4982170;28;20466;-81
2023/07/06 10:23:58;;;;;;;3.37;2.90;;;;;;;24.45;38.10;157656.91;4979028;28;20866;-82
2023/07/06 10:26:29;;;;;;;3.73;2.50;;;;;;;24.66;38.79;157711.84;4980405;28;20668;-82
2023/07/06 10:29:00;;;;;;;3.10;2.70;;;;;;;24.89;37.34;157772.03;4992347;28;20458;-82
2023/07/06 10:31:31;;;;;;;2.80;2.50;;;;;;;24.71;37.16;157724.91;4983135;28;20461;-82
2023/07/06 10:34:00;;;;;;;3.80;2.73;;;;;;;24.56;37.23;157685.69;4981872;28;20533;-82
2023/07/06 10:36:32;;;;;;;4.00;3.00;;;;;;;24.62;37.36;157701.38;4978734;28;20485;-82
2023/07/06 10:39:02;;;;;;;3.23;2.90;;;;;;;24.67;37.50;157714.47;4980802;28;20813;-82
2023/07/06 10:41:31;;;;;;;5.07;3.10;;;;;;;24.67;37.76;157715.78;4975888;28;20454;-82
2023/07/06 10:44:02;;;;;;;4.20;3.23;;;;;;;24.58;37.80;157692.22;4981182;28;20853;-82
2023/07/06 10:46:35;;;;;;;3.83;2.87;;;;;;;24.28;38.25;157613.72;4991936;28;20791;-82
2023/07/06 10:49:18;;;;;;;3.07;2.77;;;;;;;23.88;38.55;157510.38;4977482;28;20453;-82
2023/07/06 10:51:47;;;;;;;3.97;3.30;;;;;;;23.56;39.42;157426.75;4979747;28;20454;-81
2023/07/06 10:54:18;;;;;;;3.30;2.83;;;;;;;23.47;39.85;157403.19;4982460;28;20815;-82
2023/07/06 10:56:47;;;;;;;4.10;3.03;;;;;;;23.76;40.31;157477.69;4971970;28;20517;-82
2023/07/06 10:59:18;;;;;;;10.27;3.33;;;;;;;23.98;38.57;157535.25;4971235;28;21251;-82
2023/07/06 11:01:47;;;;;;;3.40;3.00;;;;;;;23.94;38.63;157526.06;4979514;28;20459;-82
2023/07/06 11:04:43;;;;;;;4.80;2.67;;;;;;;23.92;38.96;157520.84;4972636;28;20470;-82
2023/07/06 11:07:11;;;;;;;4.77;2.87;;;;;;;23.97;38.70;157532.59;4970960;28;20457;-82
2023/07/06 11:09:48;;;;;;;3.60;2.63;;;;;;;23.93;38.42;157522.16;4973895;28;20470;-82
2023/07/06 11:12:20;;;;;;;4.40;3.30;;;;;;;24.26;37.86;157607.19;4985556;28;21111;-81
2023/07/06 11:14:50;;;;;;;3.03;2.73;;;;;;;24.39;37.30;157642.50;4990257;28;20457;-81
2023/07/06 11:17:26;;;;;;;5.73;3.27;;;;;;;24.47;36.94;157662.13;4980047;28;20453;-81
2023/07/06 11:19:56;;;;;;;4.63;3.40;;;;;;;24.43;36.52;157651.69;4973222;28;21003;-82
2023/07/06 11:22:24;;;;;;;3.23;2.93;;;;;;;24.26;37.09;157607.19;4988275;28;21515;-82
2023/07/06 11:24:54;;;;;;;5.20;2.77;;;;;;;24.46;37.30;157659.53;4978628;28;20480;-82
2023/07/06 11:27:24;;;;;;;4.17;2.80;;;;;;;24.59;37.58;157693.53;4956969;28;20497;-81
2023/07/06 11:29:55;;;;;;;4.00;3.10;;;;;;;24.88;36.72;157768.16;4975069;28;20991;-83
2023/07/06 11:32:28;;;;;;;3.23;2.73;;;;;;;24.73;36.23;157730.13;4980935;28;20508;-82